Airfield :
LOGIN :

Register | Disclaimer

   EN    FR    IT 

 










Legend :    VFR   Marginal VFR   IFR   Intensive IFR   Very Intensive IFR
Visi :
Ceiling :
>= 8 km
>= 3000ft
5 to 8 km
1000 to 3000 ft
1500m to 5 km
500 to 1000 ft
800 to 1500m
200 to 500 ft
< 800m
< 200 ft
Symbols :   Thunderstorms  Fog  Heavy snow  Heavy precipitations  Wind > 20 kt
SIGMETs :     Misc.  Thunderstorms  Icing  Turbulence  Mountain Waves  Volcanic Ashes






- Airport Elevation : 465 ft
- IATA code : LEJ


EDDP - Leipzig Halle

CURRENT METAR :
  • 290750Z AUTO VRB05KT 4100 DZ BR OVC010 04/04 Q1016 TEMPO 2500 -RADZ BKN008

EXPIRED METARs :
  • 290720Z AUTO 14005KT 3600 DZ BR FEW006 BKN012 04/04 Q1016 TEMPO 2500 -RADZ BKN008
  • 290650Z AUTO 15005KT 4400 -DZ BR FEW003 OVC013 04/04 Q1016 REDZ TEMPO 2500 -RADZ BKN008
  • 290620Z AUTO 14005KT 4400 DZ BR SCT003 OVC010 04/04 Q1016 TEMPO 2500 -RADZ BKN004
  • 290550Z AUTO 14005KT 3800 -RADZ BR FEW003 OVC009 04/04 Q1015 TEMPO 2500 -RADZ BKN004
  • 290520Z AUTO 15006KT 3800 -DZ BR FEW004 BKN008 BKN011 04/04 Q1015 TEMPO 2500 -RADZ BKN004
  • 290450Z AUTO 14005KT 6000 FEW007 OVC015 04/03 Q1015 TEMPO 4000 -RADZ BKN014

TAF TAF EDDP
Valid from the 29 at 06:00 until the 30 at 06:00 UTC


290500Z 2906/3006 13005KT 8000 BKN025
TEMPO 2906/2909 4000 -RADZ BR BKN012
PROB30
TEMPO 2906/2908 BKN004
BECMG 2918/2921 VRB02KT BKN012
PROB30
TEMPO 2921/3006 2500 -DZRA BR BKN005



MET'MAP, your aeronautical weather chart ! - Copyright ORBIFLY December 2007 - Disclaimer

ORBIFLY MET'MAP TEAM :

Programming & Development : Alexandra Zaïnal
Original concept : Baudouin d'Aumeries
Technical & hardware support : Manuel Goepfert
Assistance : Marc-Olivier Méhu




SOURCES & CREDITS :

   NOAA